Time;durP1;ratioP1;P1;durP2;ratioP2;P2;SDS_P1;SDS_P2;PMS_P1;PMS_P2;Temp;Humidity;BMP_temperature;BMP_pressure;BME280_temperature;BME280_humidity;BME280_pressure;Samples;Min_cycle;Max_cycle;Signal;HPM_P1;HPM_P2
2023/03/04 00:00:30;;;;;;;3.90;3.53;;;;;;;;;;1037638;28;20096;-77
2023/03/04 00:01:00;;;;;;;4.40;2.20;;;;;;;;;;1037630;28;20026;-77
2023/03/04 00:01:31;;;;;;;3.03;1.90;;;;;;;;;;1038145;28;20497;-77
2023/03/04 00:02:02;;;;;;;3.00;1.90;;;;;;;;;;1038334;28;20109;-78
2023/03/04 00:02:32;;;;;;;3.30;1.40;;;;;;;;;;1037847;28;20022;-78
2023/03/04 00:03:03;;;;;;;3.03;2.22;;;;;;;;;;1036507;28;20112;-78
2023/03/04 00:03:33;;;;;;;2.83;1.90;;;;;;;;;;1034677;28;20029;-78
2023/03/04 00:04:04;;;;;;;2.80;2.17;;;;;;;;;;1034697;28;20025;-77
2023/03/04 00:04:35;;;;;;;6.45;2.90;;;;;;;;;;1038799;28;20036;-77
2023/03/04 00:05:05;;;;;;;3.70;1.85;;;;;;;;;;1038530;28;20033;-77
2023/03/04 00:05:36;;;;;;;2.80;2.20;;;;;;;;;;1038643;28;20089;-77
2023/03/04 00:06:07;;;;;;;6.32;2.35;;;;;;;;;;1038111;28;20030;-77
2023/03/04 00:06:38;;;;;;;5.97;3.30;;;;;;;;;;1036391;28;20051;-77
2023/03/04 00:07:08;;;;;;;5.25;2.65;;;;;;;;;;1033832;28;20022;-77
2023/03/04 00:07:39;;;;;;;7.97;2.97;;;;;;;;;;1033686;28;20094;-78
2023/03/04 00:08:09;;;;;;;6.70;2.65;;;;;;;;;;1034754;28;20441;-78
2023/03/04 00:08:40;;;;;;;3.38;2.50;;;;;;;;;;1034753;28;20036;-78
2023/03/04 00:09:10;;;;;;;2.90;2.10;;;;;;;;;;1034681;28;20026;-78
2023/03/04 00:09:42;;;;;;;7.05;1.88;;;;;;;;;;1038457;28;20115;-78
2023/03/04 00:10:12;;;;;;;5.15;3.45;;;;;;;;;;1034773;28;20478;-78
2023/03/04 00:10:43;;;;;;;3.80;2.58;;;;;;;;;;1034760;28;20104;-78
2023/03/04 00:11:13;;;;;;;3.47;2.45;;;;;;;;;;1034983;28;20040;-78
2023/03/04 00:11:44;;;;;;;5.22;3.10;;;;;;;;;;1038658;28;20373;-78
2023/03/04 00:12:14;;;;;;;5.18;2.47;;;;;;;;;;1038542;28;20112;-77
2023/03/04 00:12:45;;;;;;;2.50;1.58;;;;;;;;;;1037938;28;20038;-77
2023/03/04 00:13:17;;;;;;;5.60;3.28;;;;;;;;;;1039206;28;20065;-77
2023/03/04 00:13:47;;;;;;;3.28;1.83;;;;;;;;;;1038557;28;20083;-77
2023/03/04 00:14:18;;;;;;;5.95;2.67;;;;;;;;;;1038275;28;20048;-77
2023/03/04 00:14:49;;;;;;;6.03;3.22;;;;;;;;;;1034194;28;20070;-77
2023/03/04 00:15:19;;;;;;;1.88;1.40;;;;;;;;;;1034879;28;20029;-77
2023/03/04 00:15:51;;;;;;;3.13;2.38;;;;;;;;;;1034343;28;20022;-77
2023/03/04 00:16:21;;;;;;;3.53;2.05;;;;;;;;;;1037603;28;20018;-77
2023/03/04 00:16:52;;;;;;;4.47;2.28;;;;;;;;;;1038714;28;20053;-77
2023/03/04 00:17:23;;;;;;;3.33;1.92;;;;;;;;;;1038513;28;20025;-78
2023/03/04 00:17:53;;;;;;;3.33;1.38;;;;;;;;;;1038740;28;20397;-78
2023/03/04 00:18:24;;;;;;;2.55;1.42;;;;;;;;;;1038432;28;20030;-78
2023/03/04 00:18:55;;;;;;;4.78;2.65;;;;;;;;;;1030510;28;20125;-78
2023/03/04 00:19:25;;;;;;;2.65;2.28;;;;;;;;;;1033722;28;20026;-77
2023/03/04 00:19:56;;;;;;;37.03;2.70;;;;;;;;;;1035337;28;20022;-77
2023/03/04 00:20:27;;;;;;;7.63;3.88;;;;;;;;;;1035636;28;20085;-77
2023/03/04 00:20:57;;;;;;;3.58;2.33;;;;;;;;;;1038657;28;20029;-77
2023/03/04 00:21:28;;;;;;;2.83;1.83;;;;;;;;;;1038586;28;20033;-77
2023/03/04 00:21:59;;;;;;;4.47;2.47;;;;;;;;;;1038749;28;20025;-77
2023/03/04 00:22:29;;;;;;;5.75;3.55;;;;;;;;;;1038466;28;20044;-77
2023/03/04 00:23:00;;;;;;;2.28;1.75;;;;;;;;;;1036490;28;20017;-77
2023/03/04 00:23:30;;;;;;;6.20;2.30;;;;;;;;;;1034727;28;20022;-77
2023/03/04 00:24:01;;;;;;;2.38;1.85;;;;;;;;;;1034444;28;20038;-77
2023/03/04 00:24:32;;;;;;;2.03;1.85;;;;;;;;;;1034723;28;20108;-77
2023/03/04 00:25:02;;;;;;;5.03;2.65;;;;;;;;;;1039011;28;20457;-77
2023/03/04 00:25:33;;;;;;;3.60;1.90;;;;;;;;;;1038909;28;20045;-77
2023/03/04 00:26:03;;;;;;;2.47;2.13;;;;;;;;;;1037791;28;20432;-77
2023/03/04 00:26:34;;;;;;;1.05;1.02;;;;;;;;;;1038593;28;20564;-77
2023/03/04 00:27:04;;;;;;;1.98;1.83;;;;;;;;;;1037468;28;20026;-77
2023/03/04 00:27:35;;;;;;;4.75;2.97;;;;;;;;;;1039169;28;20176;-77
2023/03/04 00:28:06;;;;;;;2.72;1.13;;;;;;;;;;1038613;28;20033;-77
2023/03/04 00:28:37;;;;;;;3.75;2.58;;;;;;;;;;1039149;28;20053;-77
2023/03/04 00:29:07;;;;;;;2.45;1.30;;;;;;;;;;1038829;28;20465;-77
2023/03/04 00:29:38;;;;;;;4.07;2.00;;;;;;;;;;1038602;28;20033;-77
2023/03/04 00:30:09;;;;;;;4.60;2.65;;;;;;;;;;1038556;28;20033;-77
2023/03/04 00:30:39;;;;;;;4.53;2.58;;;;;;;;;;1038972;28;20100;-77
2023/03/04 00:31:10;;;;;;;7.72;2.80;;;;;;;;;;1039701;28;20092;-77
2023/03/04 00:31:40;;;;;;;3.90;2.08;;;;;;;;;;1037776;28;20080;-77
2023/03/04 00:32:11;;;;;;;4.38;3.28;;;;;;;;;;1039187;28;20025;-77
2023/03/04 00:32:42;;;;;;;5.32;3.42;;;;;;;;;;1038838;28;20029;-77
2023/03/04 00:33:12;;;;;;;1.95;1.75;;;;;;;;;;1039024;28;20018;-77
2023/03/04 00:33:43;;;;;;;13.75;3.40;;;;;;;;;;1038863;28;20026;-77
2023/03/04 00:34:13;;;;;;;2.20;1.75;;;;;;;;;;1038846;28;20022;-77
2023/03/04 00:34:44;;;;;;;3.88;2.53;;;;;;;;;;1039000;28;20489;-77
2023/03/04 00:35:15;;;;;;;1.85;0.80;;;;;;;;;;1038808;28;20101;-77
2023/03/04 00:35:45;;;;;;;1.77;1.63;;;;;;;;;;1037297;28;20065;-77
2023/03/04 00:36:16;;;;;;;4.80;2.33;;;;;;;;;;1038794;28;20022;-77
2023/03/04 00:36:47;;;;;;;6.25;2.38;;;;;;;;;;1038819;28;20072;-77
2023/03/04 00:37:17;;;;;;;5.68;3.28;;;;;;;;;;1039156;28;20052;-77
2023/03/04 00:37:48;;;;;;;1.75;1.33;;;;;;;;;;1038707;28;20525;-77
2023/03/04 00:38:18;;;;;;;4.00;2.55;;;;;;;;;;1038768;28;20035;-77
2023/03/04 00:38:49;;;;;;;5.53;2.15;;;;;;;;;;1038891;28;20465;-77
2023/03/04 00:39:19;;;;;;;5.00;2.58;;;;;;;;;;1037941;28;20032;-77
2023/03/04 00:39:50;;;;;;;3.25;2.60;;;;;;;;;;1036116;28;20026;-77
2023/03/04 00:40:20;;;;;;;17.05;2.72;;;;;;;;;;1037017;28;20021;-77
2023/03/04 00:40:51;;;;;;;1.73;1.60;;;;;;;;;;1036866;28;20466;-77
2023/03/04 00:41:22;;;;;;;1.95;1.30;;;;;;;;;;1038612;28;20021;-77
2023/03/04 00:41:53;;;;;;;3.67;2.53;;;;;;;;;;1038642;28;20041;-78
2023/03/04 00:42:23;;;;;;;2.83;2.40;;;;;;;;;;1038652;28;20026;-78
2023/03/04 00:42:54;;;;;;;1.98;1.48;;;;;;;;;;1038873;28;20021;-78
2023/03/04 00:43:24;;;;;;;3.97;2.67;;;;;;;;;;1038503;28;20615;-78
2023/03/04 00:43:55;;;;;;;2.67;1.52;;;;;;;;;;1036395;28;20033;-78
2023/03/04 00:44:25;;;;;;;2.33;1.30;;;;;;;;;;1036418;28;20026;-78
2023/03/04 00:44:56;;;;;;;10.57;3.10;;;;;;;;;;1035906;28;20084;-78
2023/03/04 00:45:26;;;;;;;4.03;2.15;;;;;;;;;;1035441;28;20022;-78
2023/03/04 00:45:57;;;;;;;6.78;2.95;;;;;;;;;;1036281;28;20533;-77
2023/03/04 00:46:27;;;;;;;3.22;2.72;;;;;;;;;;1036468;28;20053;-77
2023/03/04 00:46:58;;;;;;;3.40;1.60;;;;;;;;;;1036419;28;20056;-77
2023/03/04 00:47:29;;;;;;;2.85;2.03;;;;;;;;;;1038496;28;20032;-77
2023/03/04 00:47:59;;;;;;;5.68;3.00;;;;;;;;;;1038478;28;20029;-77
2023/03/04 00:48:30;;;;;;;4.63;2.35;;;;;;;;;;1038822;28;20478;-77
2023/03/04 00:49:00;;;;;;;2.03;1.35;;;;;;;;;;1036062;28;20041;-79
2023/03/04 00:49:31;;;;;;;1.85;1.70;;;;;;;;;;1034746;28;20619;-78
2023/03/04 00:50:01;;;;;;;6.63;2.47;;;;;;;;;;1034600;28;20034;-78
2023/03/04 00:50:32;;;;;;;4.68;2.63;;;;;;;;;;1034927;28;20080;-78
2023/03/04 00:51:02;;;;;;;4.60;2.22;;;;;;;;;;1038915;28;20032;-77
2023/03/04 00:51:33;;;;;;;5.65;1.77;;;;;;;;;;1039122;28;20053;-77
2023/03/04 00:52:03;;;;;;;6.43;2.97;;;;;;;;;;1039181;28;20037;-77
2023/03/04 00:52:34;;;;;;;2.33;1.88;;;;;;;;;;1038377;28;20022;-77
2023/03/04 00:53:05;;;;;;;5.68;3.17;;;;;;;;;;1037796;28;20548;-77
2023/03/04 00:53:35;;;;;;;8.00;2.22;;;;;;;;;;1037749;28;20025;-77
2023/03/04 00:54:06;;;;;;;3.60;2.35;;;;;;;;;;1038639;28;20531;-78
2023/03/04 00:54:36;;;;;;;3.17;2.70;;;;;;;;;;1038641;28;20482;-78
2023/03/04 00:55:07;;;;;;;4.68;3.00;;;;;;;;;;1038569;28;20072;-78
2023/03/04 00:55:37;;;;;;;4.63;3.00;;;;;;;;;;1038451;28;20021;-77
2023/03/04 00:56:08;;;;;;;2.70;1.67;;;;;;;;;;1036429;28;20469;-77
2023/03/04 00:56:39;;;;;;;2.58;1.80;;;;;;;;;;1032494;28;20058;-77
2023/03/04 00:57:09;;;;;;;1.77;1.45;;;;;;;;;;1034112;28;20026;-77
2023/03/04 00:57:40;;;;;;;3.72;1.80;;;;;;;;;;1034402;28;20039;-79
2023/03/04 00:58:10;;;;;;;5.60;2.92;;;;;;;;;;1032692;28;20018;-78
2023/03/04 00:58:41;;;;;;;8.00;2.05;;;;;;;;;;1035213;28;20496;-78
2023/03/04 00:59:11;;;;;;;4.13;2.72;;;;;;;;;;1034878;28;20026;-77
2023/03/04 00:59:42;;;;;;;1.15;1.05;;;;;;;;;;1034469;28;20032;-77
2023/03/04 01:00:13;;;;;;;1.70;1.15;;;;;;;;;;1038520;28;20025;-77
2023/03/04 01:00:44;;;;;;;1.67;1.33;;;;;;;;;;1037481;28;20029;-78
2023/03/04 01:01:14;;;;;;;3.70;2.28;;;;;;;;;;1038724;28;20033;-77
2023/03/04 01:01:45;;;;;;;3.10;1.17;;;;;;;;;;1038226;28;20609;-78
2023/03/04 01:02:15;;;;;;;4.85;2.42;;;;;;;;;;1037663;28;20714;-78
2023/03/04 01:02:46;;;;;;;3.30;1.98;;;;;;;;;;1038585;28;21715;-78
2023/03/04 01:03:17;;;;;;;2.35;1.65;;;;;;;;;;1038123;28;20466;-78
2023/03/04 01:03:47;;;;;;;2.53;1.98;;;;;;;;;;1036120;28;20301;-78
2023/03/04 01:04:18;;;;;;;3.72;2.17;;;;;;;;;;1036459;28;20030;-77
2023/03/04 01:04:48;;;;;;;2.13;1.63;;;;;;;;;;1032105;28;20631;-78
2023/03/04 01:05:19;;;;;;;10.73;3.50;;;;;;;;;;1032643;28;20022;-78
2023/03/04 01:05:50;;;;;;;3.63;2.08;;;;;;;;;;1038220;28;20071;-78
2023/03/04 01:06:20;;;;;;;5.28;2.70;;;;;;;;;;1038240;28;20076;-78
2023/03/04 01:06:51;;;;;;;3.38;1.92;;;;;;;;;;1039314;28;20029;-78
2023/03/04 01:07:21;;;;;;;5.47;2.20;;;;;;;;;;1038116;28;20025;-78
2023/03/04 01:07:52;;;;;;;3.17;2.40;;;;;;;;;;1037368;28;20016;-78
2023/03/04 01:08:22;;;;;;;1.63;1.52;;;;;;;;;;1037707;28;20560;-78
2023/03/04 01:08:53;;;;;;;4.57;3.28;;;;;;;;;;1038422;28;20028;-78
2023/03/04 01:09:25;;;;;;;3.47;2.38;;;;;;;;;;1038714;28;20084;-78
2023/03/04 01:09:56;;;;;;;6.13;2.65;;;;;;;;;;1038580;28;20032;-78
2023/03/04 01:10:26;;;;;;;2.95;2.15;;;;;;;;;;1038587;28;20032;-78
2023/03/04 01:10:57;;;;;;;2.08;1.90;;;;;;;;;;1039316;28;20108;-78
2023/03/04 01:11:28;;;;;;;4.05;1.92;;;;;;;;;;1038431;28;20041;-78
2023/03/04 01:11:58;;;;;;;3.58;2.92;;;;;;;;;;1038731;28;20532;-78
2023/03/04 01:12:29;;;;;;;6.53;3.70;;;;;;;;;;1034649;28;20117;-78
2023/03/04 01:12:59;;;;;;;6.95;3.30;;;;;;;;;;1032701;28;20030;-78
2023/03/04 01:13:30;;;;;;;4.63;1.00;;;;;;;;;;1035308;28;20026;-78
2023/03/04 01:14:00;;;;;;;6.53;2.42;;;;;;;;;;1035462;28;20034;-78
2023/03/04 01:14:31;;;;;;;3.55;2.40;;;;;;;;;;1035948;28;20030;-78
2023/03/04 01:15:02;;;;;;;5.28;2.95;;;;;;;;;;1035722;28;20030;-78
2023/03/04 01:15:32;;;;;;;18.38;2.05;;;;;;;;;;1033577;28;20030;-78
2023/03/04 01:16:03;;;;;;;1.48;1.38;;;;;;;;;;1033843;28;20022;-78
2023/03/04 01:16:34;;;;;;;5.43;3.38;;;;;;;;;;1033435;28;20026;-78
2023/03/04 01:17:05;;;;;;;2.15;1.60;;;;;;;;;;1037582;28;20503;-78
2023/03/04 01:17:35;;;;;;;3.10;1.42;;;;;;;;;;1037860;28;20470;-77
2023/03/04 01:18:06;;;;;;;4.88;3.10;;;;;;;;;;1038096;28;20036;-78
2023/03/04 01:18:36;;;;;;;7.30;2.10;;;;;;;;;;1037868;28;20523;-78
2023/03/04 01:19:07;;;;;;;9.55;2.03;;;;;;;;;;1037936;28;20077;-78
2023/03/04 01:19:37;;;;;;;2.50;2.30;;;;;;;;;;1035612;28;20520;-78
2023/03/04 01:20:09;;;;;;;7.07;2.15;;;;;;;;;;1036009;28;20029;-78
2023/03/04 01:20:40;;;;;;;2.33;1.42;;;;;;;;;;1035665;28;20113;-78
2023/03/04 01:21:10;;;;;;;1.80;1.33;;;;;;;;;;1033410;28;20096;-78
2023/03/04 01:21:41;;;;;;;5.88;1.83;;;;;;;;;;1033952;28;20379;-78
2023/03/04 01:22:13;;;;;;;5.53;2.30;;;;;;;;;;1033563;28;20025;-78
2023/03/04 01:22:44;;;;;;;3.85;3.05;;;;;;;;;;1033421;28;20165;-78
2023/03/04 01:23:15;;;;;;;3.00;2.03;;;;;;;;;;1033796;28;20017;-78
2023/03/04 01:23:45;;;;;;;3.45;2.58;;;;;;;;;;1033262;28;20466;-78
2023/03/04 01:24:16;;;;;;;3.05;1.80;;;;;;;;;;1033873;28;20030;-78
2023/03/04 01:24:46;;;;;;;5.70;3.10;;;;;;;;;;1037894;28;20025;-78
2023/03/04 01:25:17;;;;;;;2.63;1.40;;;;;;;;;;1038092;28;20080;-78
2023/03/04 01:25:47;;;;;;;3.30;1.92;;;;;;;;;;1038310;28;20026;-79
2023/03/04 01:26:18;;;;;;;6.68;3.60;;;;;;;;;;1037810;28;20028;-78
2023/03/04 01:26:48;;;;;;;4.47;1.23;;;;;;;;;;1039289;28;20477;-78
2023/03/04 01:27:19;;;;;;;5.90;1.90;;;;;;;;;;1038373;28;20032;-78
2023/03/04 01:27:50;;;;;;;5.18;2.72;;;;;;;;;;1037358;28;20018;-78
2023/03/04 01:28:20;;;;;;;6.25;3.25;;;;;;;;;;1036664;28;20543;-78
2023/03/04 01:28:51;;;;;;;5.25;1.92;;;;;;;;;;1037298;28;20028;-78
2023/03/04 01:29:22;;;;;;;5.85;3.15;;;;;;;;;;1037521;28;20033;-78
2023/03/04 01:29:52;;;;;;;3.53;3.22;;;;;;;;;;1034073;28;20068;-78
2023/03/04 01:30:23;;;;;;;3.90;2.30;;;;;;;;;;1031303;28;20141;-78
2023/03/04 01:30:53;;;;;;;6.82;2.75;;;;;;;;;;1029662;28;20022;-78
2023/03/04 01:31:24;;;;;;;6.55;2.05;;;;;;;;;;1029012;28;20030;-78
2023/03/04 01:31:54;;;;;;;2.72;2.08;;;;;;;;;;1031927;28;20188;-78
2023/03/04 01:32:25;;;;;;;1.83;1.70;;;;;;;;;;1034068;28;20050;-78
2023/03/04 01:32:56;;;;;;;4.47;3.50;;;;;;;;;;1033453;28;20022;-78
2023/03/04 01:33:26;;;;;;;3.13;2.28;;;;;;;;;;1036168;28;20036;-78
2023/03/04 01:33:57;;;;;;;1.95;1.77;;;;;;;;;;1036913;28;20025;-78
2023/03/04 01:34:28;;;;;;;2.53;1.15;;;;;;;;;;1035039;28;20470;-78
2023/03/04 01:34:59;;;;;;;3.85;1.67;;;;;;;;;;1037501;28;20040;-78
2023/03/04 01:35:29;;;;;;;7.55;3.63;;;;;;;;;;1033651;28;20034;-78
2023/03/04 01:36:00;;;;;;;2.58;2.15;;;;;;;;;;1032366;28;20018;-78
2023/03/04 01:36:30;;;;;;;2.33;1.75;;;;;;;;;;1027705;28;20031;-78
2023/03/04 01:37:01;;;;;;;2.55;1.73;;;;;;;;;;1031835;28;20026;-78
2023/03/04 01:37:31;;;;;;;3.65;2.65;;;;;;;;;;1035916;28;20474;-78
2023/03/04 01:38:02;;;;;;;2.72;2.17;;;;;;;;;;1035547;28;20022;-78
2023/03/04 01:38:33;;;;;;;1.60;0.85;;;;;;;;;;1037535;28;20026;-78
2023/03/04 01:39:04;;;;;;;9.50;2.17;;;;;;;;;;1038583;28;20394;-78
2023/03/04 01:39:35;;;;;;;6.57;1.42;;;;;;;;;;1036552;28;20068;-78
2023/03/04 01:40:05;;;;;;;5.45;1.92;;;;;;;;;;1036271;28;20417;-78
2023/03/04 01:40:36;;;;;;;4.22;2.45;;;;;;;;;;1034851;28;20036;-78
2023/03/04 01:41:07;;;;;;;4.30;1.75;;;;;;;;;;1035274;28;20045;-78
2023/03/04 01:41:38;;;;;;;1.15;1.00;;;;;;;;;;1037841;28;20025;-78
2023/03/04 01:42:19;;;;;;;5.80;2.15;;;;;;;;;;1038149;28;20056;-78
2023/03/04 01:42:49;;;;;;;4.60;2.17;;;;;;;;;;1037878;28;20021;-78
2023/03/04 01:43:30;;;;;;;5.63;2.38;;;;;;;;;;1035169;28;20041;-78
2023/03/04 01:44:01;;;;;;;7.75;3.30;;;;;;;;;;1035905;28;20457;-78
2023/03/04 01:44:32;;;;;;;2.78;1.83;;;;;;;;;;1038183;28;20021;-78
2023/03/04 01:45:03;;;;;;;2.85;1.52;;;;;;;;;;1038967;28;20030;-78
2023/03/04 01:45:34;;;;;;;2.85;1.98;;;;;;;;;;1035364;28;20026;-78
2023/03/04 01:46:05;;;;;;;3.30;2.35;;;;;;;;;;1037593;28;20052;-78
2023/03/04 01:46:36;;;;;;;3.70;2.97;;;;;;;;;;1038353;28;20018;-78
2023/03/04 01:47:08;;;;;;;8.60;4.35;;;;;;;;;;1037682;28;20017;-78
2023/03/04 01:47:39;;;;;;;6.28;1.90;;;;;;;;;;1037754;28;20022;-78
2023/03/04 01:48:11;;;;;;;1.40;1.27;;;;;;;;;;1037382;28;20030;-78
2023/03/04 01:48:43;;;;;;;5.85;2.05;;;;;;;;;;1037686;28;20022;-78
2023/03/04 01:49:14;;;;;;;3.40;1.63;;;;;;;;;;1036791;28;20025;-78
2023/03/04 01:49:48;;;;;;;7.90;2.33;;;;;;;;;;1036046;28;20025;-78
2023/03/04 01:50:30;;;;;;;4.78;3.05;;;;;;;;;;1036413;28;20022;-79
2023/03/04 01:51:04;;;;;;;5.10;1.85;;;;;;;;;;1037538;28;20030;-79
2023/03/04 01:51:35;;;;;;;6.55;3.53;;;;;;;;;;1037856;28;20018;-79
2023/03/04 01:52:09;;;;;;;3.20;1.65;;;;;;;;;;1037807;28;20478;-79
2023/03/04 01:52:41;;;;;;;2.33;1.95;;;;;;;;;;1037934;28;20026;-78
2023/03/04 01:53:18;;;;;;;4.28;2.35;;;;;;;;;;1038921;28;20021;-78
2023/03/04 01:53:52;;;;;;;7.97;1.90;;;;;;;;;;1037422;28;20022;-78
2023/03/04 01:54:22;;;;;;;5.10;3.40;;;;;;;;;;1037023;28;20029;-78
2023/03/04 01:54:53;;;;;;;7.25;3.47;;;;;;;;;;1039324;28;20025;-78
2023/03/04 01:55:27;;;;;;;4.18;2.10;;;;;;;;;;1038593;28;20104;-78
2023/03/04 01:56:10;;;;;;;3.30;1.88;;;;;;;;;;1037911;28;20072;-78
2023/03/04 01:56:43;;;;;;;6.80;3.08;;;;;;;;;;1037904;28;20021;-78
2023/03/04 01:57:18;;;;;;;7.68;3.45;;;;;;;;;;1036378;28;20432;-78
2023/03/04 01:57:49;;;;;;;4.57;2.55;;;;;;;;;;1033141;28;20113;-78
2023/03/04 01:58:20;;;;;;;2.38;1.85;;;;;;;;;;1033732;28;20539;-78
2023/03/04 01:59:06;;;;;;;7.18;2.42;;;;;;;;;;1034336;28;20018;-78
2023/03/04 01:59:37;;;;;;;9.88;2.05;;;;;;;;;;1034102;28;20030;-78
2023/03/04 02:00:22;;;;;;;3.75;2.78;;;;;;;;;;1031557;28;20106;-78
2023/03/04 02:00:53;;;;;;;5.32;2.47;;;;;;;;;;1037182;28;20060;-78
2023/03/04 02:01:23;;;;;;;4.00;2.47;;;;;;;;;;1036126;28;20018;-78
2023/03/04 02:02:01;;;;;;;9.85;4.75;;;;;;;;;;1036301;28;20029;-78
2023/03/04 02:02:33;;;;;;;8.30;4.20;;;;;;;;;;1037353;28;20051;-78
2023/03/04 02:03:08;;;;;;;12.30;3.60;;;;;;;;;;1035895;28;20026;-78
2023/03/04 02:03:39;;;;;;;4.78;3.25;;;;;;;;;;1035648;28;20030;-79
2023/03/04 02:04:11;;;;;;;6.50;1.95;;;;;;;;;;1035487;28;20399;-79
2023/03/04 02:04:43;;;;;;;4.95;2.78;;;;;;;;;;1035244;28;20045;-79
2023/03/04 02:05:16;;;;;;;3.95;2.25;;;;;;;;;;1033270;28;20065;-79
2023/03/04 02:05:49;;;;;;;2.50;2.15;;;;;;;;;;1032285;28;20018;-78
2023/03/04 02:06:20;;;;;;;5.53;3.00;;;;;;;;;;1033359;28;20026;-78
2023/03/04 02:06:51;;;;;;;4.10;1.58;;;;;;;;;;1035324;28;20022;-78
2023/03/04 02:07:22;;;;;;;8.05;3.60;;;;;;;;;;1036047;28;20061;-79
2023/03/04 02:07:54;;;;;;;2.97;1.67;;;;;;;;;;1035380;28;20030;-79
2023/03/04 02:08:25;;;;;;;2.22;1.90;;;;;;;;;;1035659;28;20022;-78
2023/03/04 02:08:56;;;;;;;6.55;3.42;;;;;;;;;;1034687;28;20022;-78
2023/03/04 02:09:27;;;;;;;4.10;2.67;;;;;;;;;;1033190;28;20073;-78
2023/03/04 02:09:59;;;;;;;5.53;2.63;;;;;;;;;;1034478;28;20025;-78
2023/03/04 02:10:30;;;;;;;12.95;4.30;;;;;;;;;;1040254;28;20029;-79
2023/03/04 02:11:01;;;;;;;3.33;2.95;;;;;;;;;;1038340;28;20490;-79
2023/03/04 02:11:32;;;;;;;11.90;4.03;;;;;;;;;;1038215;28;20026;-79
2023/03/04 02:12:03;;;;;;;9.52;2.83;;;;;;;;;;1038545;28;20021;-78
2023/03/04 02:12:34;;;;;;;12.48;3.53;;;;;;;;;;1037050;28;20025;-78
2023/03/04 02:13:05;;;;;;;4.18;3.05;;;;;;;;;;1038749;28;20396;-78
2023/03/04 02:13:35;;;;;;;2.78;2.55;;;;;;;;;;1033180;28;20025;-78
2023/03/04 02:14:09;;;;;;;9.38;3.72;;;;;;;;;;1034118;28;20037;-78
2023/03/04 02:14:39;;;;;;;8.77;3.60;;;;;;;;;;1031905;28;20121;-78
2023/03/04 02:15:10;;;;;;;5.93;3.22;;;;;;;;;;1030117;28;20030;-78
2023/03/04 02:15:44;;;;;;;27.88;4.78;;;;;;;;;;1033085;28;20021;-79
2023/03/04 02:16:15;;;;;;;4.10;1.75;;;;;;;;;;1033949;28;20026;-79
2023/03/04 02:16:47;;;;;;;2.88;2.45;;;;;;;;;;1035525;28;20040;-80
2023/03/04 02:17:23;;;;;;;7.35;2.88;;;;;;;;;;1035702;28;20028;-79
2023/03/04 02:17:53;;;;;;;4.43;2.65;;;;;;;;;;1035661;28;20036;-79
2023/03/04 02:18:24;;;;;;;9.05;4.60;;;;;;;;;;1035123;28;20831;-79
2023/03/04 02:18:55;;;;;;;17.92;3.33;;;;;;;;;;1038467;28;20046;-79
2023/03/04 02:19:29;;;;;;;9.48;2.58;;;;;;;;;;1034718;28;20084;-79
2023/03/04 02:20:14;;;;;;;3.67;2.25;;;;;;;;;;1034337;28;20037;-78
2023/03/04 02:20:50;;;;;;;4.60;2.05;;;;;;;;;;1037190;28;20279;-78
2023/03/04 02:21:25;;;;;;;5.75;2.75;;;;;;;;;;1036077;28;20189;-78
2023/03/04 02:21:55;;;;;;;5.70;3.53;;;;;;;;;;1031375;28;20057;-78
2023/03/04 02:22:26;;;;;;;11.32;4.05;;;;;;;;;;1030241;28;20026;-78
2023/03/04 02:23:10;;;;;;;5.85;2.30;;;;;;;;;;1032154;28;20086;-78
2023/03/04 02:24:00;;;;;;;8.68;2.80;;;;;;;;;;1031700;28;20058;-78
2023/03/04 02:24:35;;;;;;;5.55;3.83;;;;;;;;;;1028591;28;20026;-79
2023/03/04 02:25:13;;;;;;;7.22;3.58;;;;;;;;;;1032101;28;20073;-78
2023/03/04 02:25:48;;;;;;;6.25;3.58;;;;;;;;;;1032547;28;20065;-78
2023/03/04 02:26:20;;;;;;;6.63;3.70;;;;;;;;;;1035354;28;20030;-78
2023/03/04 02:26:51;;;;;;;5.65;3.17;;;;;;;;;;1032850;28;20029;-79
2023/03/04 02:27:22;;;;;;;3.83;1.58;;;;;;;;;;1027005;28;20031;-79
2023/03/04 02:27:52;;;;;;;6.97;3.33;;;;;;;;;;1030999;28;20016;-79
2023/03/04 02:28:23;;;;;;;3.90;2.95;;;;;;;;;;1028387;28;20081;-78
2023/03/04 02:28:55;;;;;;;9.25;3.17;;;;;;;;;;1031172;28;20038;-79
2023/03/04 02:29:27;;;;;;;7.10;3.05;;;;;;;;;;1027733;28;20030;-78
2023/03/04 02:29:58;;;;;;;5.22;3.53;;;;;;;;;;1022854;28;20038;-80
2023/03/04 02:30:38;;;;;;;11.02;3.78;;;;;;;;;;1022860;29;20434;-79
2023/03/04 02:31:08;;;;;;;;;;;;;;;;;;1024904;28;20038;-80
2023/03/04 02:31:40;;;;;;;13.00;3.70;;;;;;;;;;1030002;28;20530;-80
2023/03/04 02:32:12;;;;;;;7.40;3.25;;;;;;;;;;1033133;28;20057;-79
2023/03/04 02:32:42;;;;;;;8.98;6.15;;;;;;;;;;1035829;28;20029;-79
2023/03/04 02:33:14;;;;;;;8.10;2.85;;;;;;;;;;1035959;28;20021;-79
2023/03/04 02:33:45;;;;;;;4.00;2.90;;;;;;;;;;1036141;28;20088;-79
2023/03/04 02:34:24;;;;;;;10.50;5.30;;;;;;;;;;1037007;28;20018;-79
2023/03/04 02:34:55;;;;;;;3.80;2.15;;;;;;;;;;1037393;28;20064;-79
2023/03/04 02:35:25;;;;;;;15.50;4.28;;;;;;;;;;1038019;28;20033;-79
2023/03/04 02:35:56;;;;;;;7.97;3.20;;;;;;;;;;1035080;28;20528;-79
2023/03/04 02:36:31;;;;;;;6.85;3.40;;;;;;;;;;1033921;28;20049;-78
2023/03/04 02:37:03;;;;;;;7.35;2.75;;;;;;;;;;1033877;28;20042;-78
2023/03/04 02:37:34;;;;;;;7.82;3.55;;;;;;;;;;1033109;28;20045;-78
2023/03/04 02:38:05;;;;;;;6.03;3.65;;;;;;;;;;1033668;28;20129;-78
2023/03/04 02:38:35;;;;;;;7.55;3.30;;;;;;;;;;1032616;28;20033;-78
2023/03/04 02:39:10;;;;;;;10.23;8.25;;;;;;;;;;1032038;28;20052;-78
2023/03/04 02:39:42;;;;;;;4.28;2.20;;;;;;;;;;1032956;28;20028;-78
2023/03/04 02:40:33;;;;;;;10.20;4.15;;;;;;;;;;1036230;28;20033;-79
2023/03/04 02:41:03;;;;;;;13.65;2.35;;;;;;;;;;1032515;28;20192;-79
2023/03/04 02:41:34;;;;;;;8.05;3.55;;;;;;;;;;1032192;28;20064;-77
2023/03/04 02:42:05;;;;;;;7.15;3.22;;;;;;;;;;1031717;28;20700;-79
2023/03/04 02:42:36;;;;;;;14.85;3.83;;;;;;;;;;1033338;28;20057;-77
2023/03/04 02:43:09;;;;;;;4.00;2.67;;;;;;;;;;1036411;28;20096;-77
2023/03/04 02:43:39;;;;;;;6.68;3.22;;;;;;;;;;1036909;28;20030;-77
2023/03/04 02:44:18;;;;;;;11.45;3.35;;;;;;;;;;1036789;28;20025;-77
2023/03/04 02:44:49;;;;;;;5.53;2.15;;;;;;;;;;1037373;28;20028;-77
2023/03/04 02:45:36;;;;;;;6.22;2.92;;;;;;;;;;1034270;28;20366;-77
2023/03/04 02:46:09;;;;;;;5.22;3.45;;;;;;;;;;1031403;28;20455;-78
2023/03/04 02:46:40;;;;;;;5.43;2.70;;;;;;;;;;1031517;28;20064;-78
2023/03/04 02:47:12;;;;;;;7.60;4.40;;;;;;;;;;1033521;28;20030;-78
2023/03/04 02:47:42;;;;;;;6.22;4.00;;;;;;;;;;1033507;28;20464;-78
2023/03/04 02:48:15;;;;;;;18.15;3.70;;;;;;;;;;1034989;28;20041;-78
2023/03/04 02:48:45;;;;;;;3.42;2.88;;;;;;;;;;1037244;28;20725;-78
2023/03/04 02:49:16;;;;;;;5.60;3.13;;;;;;;;;;1037113;28;20120;-78
2023/03/04 02:49:48;;;;;;;9.65;4.32;;;;;;;;;;1033689;28;20034;-79
2023/03/04 02:50:19;;;;;;;8.77;3.20;;;;;;;;;;1035000;28;20087;-79
2023/03/04 02:50:51;;;;;;;9.70;4.70;;;;;;;;;;1032292;28;20080;-79
2023/03/04 02:51:23;;;;;;;15.48;3.22;;;;;;;;;;1033670;28;20064;-79
2023/03/04 02:52:04;;;;;;;27.88;5.07;;;;;;;;;;1036354;28;20108;-79
2023/03/04 02:52:35;;;;;;;5.68;2.72;;;;;;;;;;1036608;28;20141;-79
2023/03/04 02:53:08;;;;;;;6.47;3.42;;;;;;;;;;1036537;28;20036;-79
2023/03/04 02:53:39;;;;;;;6.47;2.75;;;;;;;;;;1036121;28;20496;-78
2023/03/04 02:54:17;;;;;;;7.47;3.35;;;;;;;;;;1032631;28;20029;-78
2023/03/04 02:54:48;;;;;;;7.07;3.63;;;;;;;;;;1032327;28;20030;-78
2023/03/04 02:55:19;;;;;;;9.35;3.15;;;;;;;;;;1033863;28;20478;-78
2023/03/04 02:55:50;;;;;;;4.30;2.38;;;;;;;;;;1036869;28;20111;-78
2023/03/04 02:56:21;;;;;;;8.43;3.85;;;;;;;;;;1037442;28;20393;-78
2023/03/04 02:56:52;;;;;;;6.50;4.68;;;;;;;;;;1036696;28;20496;-78
2023/03/04 02:57:26;;;;;;;9.07;3.90;;;;;;;;;;1037057;28;20056;-77
2023/03/04 02:57:57;;;;;;;10.73;3.35;;;;;;;;;;1035177;28;20045;-78
2023/03/04 02:58:27;;;;;;;15.75;3.83;;;;;;;;;;1036389;28;20379;-78
2023/03/04 02:58:58;;;;;;;16.70;5.50;;;;;;;;;;1035804;28;20024;-78
2023/03/04 02:59:30;;;;;;;7.97;3.30;;;;;;;;;;1034933;28;20037;-78
2023/03/04 03:00:02;;;;;;;8.65;5.45;;;;;;;;;;1029375;28;20029;-79
2023/03/04 03:00:36;;;;;;;20.00;4.38;;;;;;;;;;1028180;28;20035;-79
2023/03/04 03:01:09;;;;;;;15.02;4.82;;;;;;;;;;1031541;28;20022;-79
2023/03/04 03:01:41;;;;;;;11.07;4.82;;;;;;;;;;1035723;28;20397;-79
2023/03/04 03:02:12;;;;;;;9.48;4.90;;;;;;;;;;1036561;28;20584;-79
2023/03/04 03:02:43;;;;;;;7.20;3.30;;;;;;;;;;1035921;28;20033;-80
2023/03/04 03:03:14;;;;;;;6.75;4.57;;;;;;;;;;1032874;28;20501;-80
2023/03/04 03:03:45;;;;;;;13.93;5.00;;;;;;;;;;1032866;28;20112;-79
2023/03/04 03:04:15;;;;;;;7.22;3.83;;;;;;;;;;1030598;28;20057;-79
2023/03/04 03:04:46;;;;;;;4.22;3.13;;;;;;;;;;1029654;28;20061;-79
2023/03/04 03:05:17;;;;;;;19.90;4.97;;;;;;;;;;1034342;28;20421;-79
2023/03/04 03:05:49;;;;;;;5.97;3.10;;;;;;;;;;1034318;28;20033;-79
2023/03/04 03:06:20;;;;;;;8.35;4.80;;;;;;;;;;1034851;28;20521;-79
2023/03/04 03:06:51;;;;;;;12.50;4.18;;;;;;;;;;1036561;28;20014;-79
2023/03/04 03:07:22;;;;;;;7.00;3.80;;;;;;;;;;1034753;28;20056;-79
2023/03/04 03:07:53;;;;;;;11.15;5.18;;;;;;;;;;1033357;28;20511;-79
2023/03/04 03:08:24;;;;;;;6.40;3.83;;;;;;;;;;1032130;28;20998;-79
2023/03/04 03:08:55;;;;;;;10.88;5.15;;;;;;;;;;1033118;28;20026;-79
2023/03/04 03:09:26;;;;;;;11.80;5.40;;;;;;;;;;1033863;28;20030;-79
2023/03/04 03:09:59;;;;;;;11.15;4.78;;;;;;;;;;1034122;28;20065;-78